Terminal Aerodrome Forecast
Issued by NWS

Home | Current Version | Previous Version | Text Only | Print | Product List | Glossary On
Versions: 1 2 3 4 5 6 7 8 9 10 11 12 13 14 15
000
FTUS44 KBMX 012200 AAA
TAFTOI
TAF AMD
KTOI 012219Z 0122/0218 04004KT P6SM SCT040 BKN150
      TEMPO 0209/0213 5SM BR BKN012
     FM021300 VRB03KT P6SM SCT015 SCT050=

USA.gov is the U.S. government's official web portal to all federal, state and local government web resources and services.